Time;durP1;ratioP1;P1;durP2;ratioP2;P2;SDS_P1;SDS_P2;PMS_P1;PMS_P2;Temp;Humidity;BMP_temperature;BMP_pressure;BME280_temperature;BME280_humidity;BME280_pressure;Samples;Min_cycle;Max_cycle;Signal;HPM_P1;HPM_P2
2021/03/26 00:01:31;;;;;;;21.80;14.33;;;;;;;3.25;69.04;95347.59;5053236;28;20457;-76
2021/03/26 00:04:00;;;;;;;22.07;13.60;;;;;;;3.20;69.60;95349.59;5053278;28;20841;-77
2021/03/26 00:06:30;;;;;;;20.50;12.70;;;;;;;3.15;69.29;95353.28;5053093;28;20829;-76
2021/03/26 00:08:57;;;;;;;24.93;13.13;;;;;;;3.15;69.20;95355.88;5053072;28;20497;-76
2021/03/26 00:11:26;;;;;;;19.97;12.07;;;;;;;3.17;68.92;95348.88;5052893;28;20445;-76
2021/03/26 00:13:53;;;;;;;26.37;12.63;;;;;;;3.11;68.86;95352.59;5053263;28;20464;-76
2021/03/26 00:16:20;;;;;;;26.70;13.97;;;;;;;3.10;69.33;95354.38;5052979;28;20460;-75
2021/03/26 00:18:46;;;;;;;26.07;13.27;;;;;;;3.13;69.54;95355.97;5053035;28;20926;-75
2021/03/26 00:21:15;;;;;;;22.80;13.27;;;;;;;3.14;69.15;95355.06;5053043;28;20471;-75
2021/03/26 00:23:42;;;;;;;18.40;12.03;;;;;;;3.17;68.96;95348.88;5053429;28;20440;-75
2021/03/26 00:26:09;;;;;;;18.67;12.27;;;;;;;3.15;69.06;95353.28;5052828;28;20445;-75
2021/03/26 00:28:35;;;;;;;16.30;9.83;;;;;;;3.10;69.19;95348.34;5052614;28;20465;-75
2021/03/26 00:31:02;;;;;;;18.60;10.97;;;;;;;3.13;69.45;95352.53;5017919;28;20445;-75
2021/03/26 00:33:28;;;;;;;19.43;12.13;;;;;;;3.11;69.48;95347.44;5053270;28;20437;-75
2021/03/26 00:35:55;;;;;;;22.73;11.50;;;;;;;3.16;69.48;95354.97;5052670;28;20487;-75
2021/03/26 00:38:22;;;;;;;24.80;12.87;;;;;;;3.16;69.55;95352.38;5052875;28;20779;-75
2021/03/26 00:40:50;;;;;;;18.13;12.00;;;;;;;2.99;69.39;95354.06;5053042;28;20579;-75
2021/03/26 00:43:16;;;;;;;18.50;11.83;;;;;;;2.98;70.29;95349.78;5052844;28;20636;-75
2021/03/26 00:45:43;;;;;;;19.70;11.63;;;;;;;2.98;70.39;95354.13;5053715;28;20441;-75
2021/03/26 00:48:11;;;;;;;23.97;12.47;;;;;;;2.97;69.78;95350.69;5056440;28;20515;-75
2021/03/26 00:50:40;;;;;;;15.03;11.20;;;;;;;2.92;70.20;95357.84;5056487;28;20442;-75
2021/03/26 00:53:10;;;;;;;21.53;12.73;;;;;;;2.89;69.89;95355.41;5056533;28;20456;-75
2021/03/26 00:55:36;;;;;;;20.93;11.20;;;;;;;2.84;70.40;95348.75;5056646;28;20441;-75
2021/03/26 00:58:04;;;;;;;16.97;11.77;;;;;;;2.86;70.13;95347.75;5056477;28;20537;-75
2021/03/26 01:00:31;;;;;;;20.13;12.67;;;;;;;2.79;70.35;95351.56;5056245;28;20453;-75
2021/03/26 01:02:58;;;;;;;25.20;13.70;;;;;;;2.83;70.45;95362.59;5056132;28;20445;-76
2021/03/26 01:05:27;;;;;;;32.80;15.93;;;;;;;2.78;70.29;95355.91;5056065;28;20440;-75
2021/03/26 01:07:53;;;;;;;38.17;17.80;;;;;;;2.73;70.18;95351.84;5056423;28;20491;-76
2021/03/26 01:10:23;;;;;;;36.83;18.92;;;;;;;2.67;70.83;95350.38;5056193;28;20445;-75
2021/03/26 01:12:50;;;;;;;34.25;17.55;;;;;;;2.69;71.37;95356.34;5037509;28;20202;-75
2021/03/26 01:15:22;;;;;;;33.13;17.80;;;;;;;2.66;71.24;95353.06;5056040;28;20210;-75
2021/03/26 01:17:50;;;;;;;26.20;14.48;;;;;;;2.67;71.37;95354.72;5056124;28;20449;-75
2021/03/26 01:20:20;;;;;;;23.33;14.00;;;;;;;2.67;71.07;95359.91;5056040;28;20268;-75
2021/03/26 01:22:47;;;;;;;30.42;16.90;;;;;;;2.65;70.94;95356.56;5056152;28;20935;-76
2021/03/26 01:25:18;;;;;;;24.85;13.70;;;;;;;2.60;71.18;95358.50;5055762;28;20211;-76
2021/03/26 01:27:44;;;;;;;28.85;13.65;;;;;;;2.63;70.97;95353.19;5037348;28;20218;-75
2021/03/26 01:30:15;;;;;;;24.00;13.40;;;;;;;2.62;70.78;95352.34;5055672;28;20213;-75
2021/03/26 01:32:42;;;;;;;19.83;12.43;;;;;;;2.63;70.94;95353.19;5055570;28;20202;-76
2021/03/26 01:35:10;;;;;;;16.33;10.97;;;;;;;2.63;70.71;95353.19;5055508;28;20442;-75
2021/03/26 01:37:37;;;;;;;14.03;11.03;;;;;;;2.66;70.50;95360.81;5055470;28;20980;-76
2021/03/26 01:40:05;;;;;;;15.70;10.37;;;;;;;2.65;70.54;95352.22;5055671;28;20993;-75
2021/03/26 01:42:34;;;;;;;19.90;12.20;;;;;;;2.64;69.42;95357.47;5020706;28;20964;-75
2021/03/26 01:45:00;;;;;;;23.80;12.50;;;;;;;2.63;69.70;95358.38;5055708;28;20437;-76
2021/03/26 01:47:28;;;;;;;25.33;11.30;;;;;;;2.56;69.24;95362.97;5055872;28;20445;-76
2021/03/26 01:49:55;;;;;;;20.17;11.70;;;;;;;2.57;69.14;95361.22;5055770;28;20447;-75
2021/03/26 01:52:22;;;;;;;18.87;13.07;;;;;;;2.56;69.48;95360.38;5055395;28;20445;-75
2021/03/26 01:54:48;;;;;;;19.07;10.97;;;;;;;2.56;69.18;95367.31;5055239;28;20448;-76
2021/03/26 01:57:15;;;;;;;24.80;12.90;;;;;;;2.58;68.27;95368.09;5054601;28;20476;-76
2021/03/26 01:59:41;;;;;;;19.70;11.40;;;;;;;2.58;68.15;95375.84;5055468;28;20460;-75
2021/03/26 02:02:12;;;;;;;12.37;8.33;;;;;;;2.60;67.95;95371.44;5055010;28;20456;-76
2021/03/26 02:04:41;;;;;;;16.83;10.50;;;;;;;2.61;68.18;95376.59;5055377;28;20827;-75
2021/03/26 02:07:09;;;;;;;15.70;10.13;;;;;;;2.61;67.59;95376.59;5036201;28;20457;-75
2021/03/26 02:09:38;;;;;;;17.23;10.40;;;;;;;2.63;67.68;95379.94;5054992;28;20489;-76
2021/03/26 02:12:07;;;;;;;17.83;10.40;;;;;;;2.64;67.81;95389.41;5055302;28;20502;-75
2021/03/26 02:14:37;;;;;;;20.53;10.60;;;;;;;2.49;68.22;95395.25;5020692;28;20441;-75
2021/03/26 02:17:04;;;;;;;18.40;12.30;;;;;;;2.46;68.45;95393.66;5054919;28;20442;-75
2021/03/26 02:19:37;;;;;;;24.77;14.80;;;;;;;2.43;69.16;95398.13;5054970;28;20452;-75
2021/03/26 02:22:04;;;;;;;28.00;16.92;;;;;;;2.35;70.24;95380.34;5054477;28;20511;-75
2021/03/26 02:24:32;;;;;;;27.45;16.75;;;;;;;2.23;70.27;95396.41;5054172;28;20277;-75
2021/03/26 02:27:02;;;;;;;29.95;16.63;;;;;;;2.21;71.23;95399.97;5054515;28;20648;-75
2021/03/26 02:29:31;;;;;;;29.65;18.45;;;;;;;2.11;71.34;95390.03;5054435;28;20252;-75
2021/03/26 02:32:01;;;;;;;30.20;17.40;;;;;;;1.99;71.04;95395.75;5054830;28;20257;-75
2021/03/26 02:34:28;;;;;;;32.38;18.40;;;;;;;1.92;71.17;95390.91;5054069;28;20206;-75
2021/03/26 02:36:57;;;;;;;36.38;19.65;;;;;;;1.94;71.78;95399.44;5054391;28;20198;-75
2021/03/26 02:39:32;;;;;;;27.60;17.00;;;;;;;1.89;71.74;95396.22;5054497;28;20194;-75
2021/03/26 02:42:03;;;;;;;33.22;17.15;;;;;;;1.91;71.49;95410.75;5054139;28;20480;-75
2021/03/26 02:44:42;;;;;;;18.60;14.75;;;;;;;1.94;71.79;95402.88;5054388;28;20204;-75
2021/03/26 02:47:24;;;;;;;23.25;14.63;;;;;;;2.00;71.24;95400.00;5054378;28;20252;-75
2021/03/26 02:49:56;;;;;;;22.50;12.43;;;;;;;2.06;70.49;95407.53;5054708;28;20202;-75
2021/03/26 02:52:32;;;;;;;18.07;12.53;;;;;;;2.13;70.00;95410.69;5053834;28;20448;-75
2021/03/26 02:55:08;;;;;;;19.73;11.40;;;;;;;2.18;69.19;95412.16;5054184;28;20418;-75
2021/03/26 02:57:40;;;;;;;19.20;11.30;;;;;;;2.18;69.05;95406.16;5054268;28;20514;-75
2021/03/26 03:00:15;;;;;;;12.27;9.37;;;;;;;2.21;68.43;95418.94;5054028;28;20453;-76
2021/03/26 03:02:43;;;;;;;11.53;7.70;;;;;;;2.18;68.06;95411.31;5053693;28;20445;-76
2021/03/26 03:05:13;;;;;;;14.53;8.90;;;;;;;2.14;67.62;95417.53;5053879;28;20454;-75
2021/03/26 03:07:42;;;;;;;13.93;9.20;;;;;;;2.15;67.57;95419.22;5054074;28;20429;-75
2021/03/26 03:10:23;;;;;;;14.37;9.27;;;;;;;2.12;67.47;95412.44;5053703;28;20493;-75
2021/03/26 03:12:52;;;;;;;13.43;9.20;;;;;;;2.15;66.55;95420.06;5054206;28;20459;-75
2021/03/26 03:15:24;;;;;;;9.83;7.60;;;;;;;2.16;66.49;95418.31;5053598;28;20464;-75
2021/03/26 03:17:58;;;;;;;14.80;8.43;;;;;;;2.20;66.37;95422.44;5035116;28;20448;-76
2021/03/26 03:20:31;;;;;;;14.07;9.25;;;;;;;2.19;65.98;95415.59;5054077;28;20773;-75
2021/03/26 03:23:05;;;;;;;11.35;8.20;;;;;;;2.21;65.71;95424.13;5053613;28;20210;-77
2021/03/26 03:25:32;;;;;;;13.15;8.50;;;;;;;2.20;65.60;95419.84;5053911;28;20641;-75
2021/03/26 03:28:12;;;;;;;11.07;8.83;;;;;;;2.17;65.42;95422.59;5053671;28;20219;-75
2021/03/26 03:30:47;;;;;;;11.57;7.20;;;;;;;2.16;65.97;95426.91;5020820;28;20437;-75
2021/03/26 03:33:18;;;;;;;9.80;7.55;;;;;;;2.11;65.75;95428.03;5053390;28;20439;-75
2021/03/26 03:35:52;;;;;;;11.40;7.77;;;;;;;2.11;65.38;95428.03;5053942;28;20241;-75
2021/03/26 03:38:33;;;;;;;11.52;8.05;;;;;;;2.12;65.25;95433.16;5018432;28;20472;-75
2021/03/26 03:41:05;;;;;;;12.02;6.78;;;;;;;2.12;64.76;95434.88;5053733;28;20529;-75
2021/03/26 03:43:38;;;;;;;8.57;7.05;;;;;;;2.10;64.63;95434.97;5053187;28;20202;-75
2021/03/26 03:46:11;;;;;;;13.05;8.23;;;;;;;2.12;64.50;95432.31;5053797;28;20592;-75
2021/03/26 03:48:43;;;;;;;11.85;7.93;;;;;;;2.11;63.87;95441.81;5052948;28;20230;-75
2021/03/26 03:51:16;;;;;;;9.73;7.83;;;;;;;2.12;64.23;95443.50;5053818;28;20563;-76
2021/03/26 03:53:49;;;;;;;17.63;11.73;;;;;;;2.05;66.16;95443.84;5053351;28;20503;-75
2021/03/26 03:56:24;;;;;;;16.83;12.90;;;;;;;2.03;66.19;95448.22;5053249;28;20933;-77
2021/03/26 03:58:57;;;;;;;19.70;13.00;;;;;;;2.05;66.96;95449.00;5052920;28;20240;-75
2021/03/26 04:01:31;;;;;;;24.40;16.60;;;;;;;1.97;67.21;95456.22;5053369;28;20199;-76
2021/03/26 04:04:04;;;;;;;28.33;14.75;;;;;;;1.99;68.09;95460.44;5034636;28;20199;-75
2021/03/26 04:06:38;;;;;;;22.63;12.57;;;;;;;1.95;68.19;95458.03;5052851;28;20268;-75
2021/03/26 04:09:07;;;;;;;21.13;13.93;;;;;;;1.92;69.02;95461.59;5052966;28;20227;-75
2021/03/26 04:11:41;;;;;;;26.95;16.25;;;;;;;1.90;69.00;95463.41;5053207;28;20248;-76
2021/03/26 04:14:12;;;;;;;21.93;16.00;;;;;;;1.85;68.66;95463.63;5053116;28;20202;-75
2021/03/26 04:16:42;;;;;;;42.30;20.17;;;;;;;1.88;69.55;95462.66;5053366;28;20957;-75
2021/03/26 04:19:12;;;;;;;26.63;17.38;;;;;;;1.89;69.70;95468.66;5053501;28;20203;-75
2021/03/26 04:21:42;;;;;;;22.65;14.30;;;;;;;1.90;69.00;95467.75;5055446;28;20191;-75
2021/03/26 04:24:13;;;;;;;16.30;11.25;;;;;;;1.95;67.51;95468.41;5057109;28;20195;-75
2021/03/26 04:26:47;;;;;;;19.03;11.47;;;;;;;2.00;67.11;95461.28;5057358;28;20293;-75
2021/03/26 04:29:22;;;;;;;24.70;12.80;;;;;;;2.01;67.21;95470.72;5057198;28;20536;-75
2021/03/26 04:31:53;;;;;;;20.63;11.90;;;;;;;2.06;66.10;95469.66;5057002;28;20449;-75
2021/03/26 04:34:19;;;;;;;17.38;10.70;;;;;;;2.09;65.55;95468.69;5056834;28;20441;-75
2021/03/26 04:36:56;;;;;;;18.42;9.40;;;;;;;2.22;65.51;95466.38;5056975;28;20202;-76
2021/03/26 04:39:29;;;;;;;19.00;9.80;;;;;;;2.53;65.21;95471.06;5056550;28;20213;-75
2021/03/26 04:42:02;;;;;;;28.63;12.30;;;;;;;2.90;63.81;95473.72;5056573;28;20260;-76
2021/03/26 04:44:36;;;;;;;27.70;12.53;;;;;;;3.34;62.80;95470.81;5057135;28;20511;-76
2021/03/26 04:47:10;;;;;;;35.37;17.13;;;;;;;3.88;60.59;95466.47;5056703;28;20448;-76
2021/03/26 04:49:42;;;;;;;29.23;14.07;;;;;;;4.34;59.23;95478.84;5056225;28;20484;-77
2021/03/26 04:52:15;;;;;;;29.47;16.33;;;;;;;4.80;57.41;95479.03;5022857;28;20453;-76
2021/03/26 04:54:46;;;;;;;22.60;13.37;;;;;;;5.09;56.17;95479.22;5056398;28;20506;-76
2021/03/26 04:57:17;;;;;;;25.03;15.13;;;;;;;5.37;55.74;95486.38;5056570;28;20601;-76
2021/03/26 04:59:55;;;;;;;19.97;13.57;;;;;;;5.57;56.46;95486.97;5056231;28;20445;-76
2021/03/26 05:02:23;;;;;;;26.70;17.47;;;;;;;5.71;55.90;95488.78;5056557;28;20495;-76
2021/03/26 05:04:55;;;;;;;22.93;15.83;;;;;;;5.89;55.10;95487.78;5055911;28;20445;-76
2021/03/26 05:07:27;;;;;;;22.73;15.67;;;;;;;6.11;53.88;95490.00;5037324;28;20434;-76
2021/03/26 05:09:58;;;;;;;31.53;23.10;;;;;;;6.27;53.72;95496.94;5056003;28;20548;-76
2021/03/26 05:12:30;;;;;;;25.97;20.70;;;;;;;6.49;53.18;95502.56;5056115;28;20445;-76
2021/03/26 05:15:01;;;;;;;40.50;20.60;;;;;;;6.73;51.87;95495.06;5056387;28;20460;-76
2021/03/26 05:17:35;;;;;;;32.00;19.97;;;;;;;6.76;51.27;95500.09;5056224;28;20532;-76
2021/03/26 05:20:12;;;;;;;31.33;20.50;;;;;;;6.97;52.51;95505.78;5055862;28;20449;-75
2021/03/26 05:22:44;;;;;;;30.93;19.73;;;;;;;7.31;51.21;95505.38;5055633;28;20438;-76
2021/03/26 05:25:15;;;;;;;20.50;16.57;;;;;;;7.66;49.01;95507.56;5056102;28;20434;-76
2021/03/26 05:27:45;;;;;;;34.80;19.80;;;;;;;7.87;48.33;95516.66;5055624;28;20946;-76
2021/03/26 05:30:21;;;;;;;36.90;23.90;;;;;;;8.15;48.04;95515.69;5055713;28;20446;-76
2021/03/26 05:32:54;;;;;;;36.67;23.33;;;;;;;8.41;48.03;95506.19;5054377;28;20457;-76
2021/03/26 05:35:23;;;;;;;34.90;22.80;;;;;;;8.74;47.24;95512.69;5055412;28;20885;-75
2021/03/26 05:37:59;;;;;;;31.03;20.73;;;;;;;9.08;47.01;95516.47;5055441;28;20483;-76
2021/03/26 05:41:01;;;;;;;39.57;21.13;;;;;;;9.47;45.49;95523.31;5055619;28;20447;-76
2021/03/26 05:43:57;;;;;;;34.50;20.77;;;;;;;9.67;45.23;95530.63;5055650;28;20435;-76
2021/03/26 05:46:34;;;;;;;35.90;21.57;;;;;;;9.41;45.07;95527.22;5054972;28;20432;-76
2021/03/26 05:49:07;;;;;;;32.70;20.93;;;;;;;9.52;45.67;95523.84;5055581;28;20486;-76
2021/03/26 05:51:48;;;;;;;36.23;22.70;;;;;;;9.54;46.93;95514.09;5055141;28;20447;-76
2021/03/26 05:54:25;;;;;;;44.47;27.60;;;;;;;9.71;45.95;95523.38;5055212;28;20449;-76
2021/03/26 05:57:02;;;;;;;41.57;26.50;;;;;;;9.84;45.95;95530.28;5055509;28;20429;-76
2021/03/26 05:59:41;;;;;;;41.70;26.50;;;;;;;9.56;45.43;95533.19;5055421;28;20451;-76
2021/03/26 06:02:38;;;;;;;53.17;27.20;;;;;;;9.67;45.52;95530.63;5054881;28;20443;-76
2021/03/26 06:05:33;;;;;;;40.73;24.57;;;;;;;9.83;44.68;95533.84;5055425;28;20441;-76
2021/03/26 06:08:33;;;;;;;39.27;26.37;;;;;;;9.84;45.75;95537.31;5055034;28;20539;-76
2021/03/26 06:11:37;;;;;;;32.47;23.10;;;;;;;10.18;44.24;95540.94;5055061;28;20461;-76
2021/03/26 06:14:26;;;;;;;35.90;23.50;;;;;;;10.56;43.36;95530.28;5026924;28;20455;-76
2021/03/26 06:17:11;;;;;;;26.40;18.40;;;;;;;10.63;41.99;95539.34;5055006;28;20452;-76
2021/03/26 06:20:05;;;;;;;35.43;21.07;;;;;;;10.77;40.75;95533.09;5054705;28;20441;-76
2021/03/26 06:22:50;;;;;;;35.07;22.67;;;;;;;10.89;40.98;95537.41;5054530;28;20454;-76
2021/03/26 06:25:44;;;;;;;35.47;20.50;;;;;;;10.93;40.15;95538.84;5054987;28;20444;-76
2021/03/26 06:28:28;;;;;;;34.00;22.47;;;;;;;11.25;40.88;95543.41;5054791;28;20542;-76
2021/03/26 06:31:23;;;;;;;32.87;21.77;;;;;;;11.18;39.23;95541.28;5054694;28;20449;-76
2021/03/26 06:34:23;;;;;;;28.30;18.67;;;;;;;11.12;40.57;95547.00;5054378;28;20450;-76
2021/03/26 06:37:07;;;;;;;30.30;19.50;;;;;;;11.36;39.42;95548.69;4992600;28;20448;-77
2021/03/26 06:40:04;;;;;;;27.97;20.07;;;;;;;11.26;40.54;95545.09;4992966;28;20493;-76
2021/03/26 06:42:46;;;;;;;44.97;29.87;;;;;;;11.29;40.82;95547.50;4954114;28;20474;-76
2021/03/26 06:45:34;;;;;;;46.17;23.40;;;;;;;10.94;39.99;95556.25;4992502;28;20441;-76
2021/03/26 06:48:17;;;;;;;34.07;21.70;;;;;;;11.02;40.39;95556.53;4992604;28;20451;-76
2021/03/26 06:50:57;;;;;;;42.23;20.37;;;;;;;11.11;40.14;95550.59;4992628;28;20456;-76
2021/03/26 06:53:35;;;;;;;24.50;18.00;;;;;;;11.28;39.31;95549.31;4992953;28;20444;-76
2021/03/26 06:56:22;;;;;;;27.20;18.40;;;;;;;11.43;39.97;95555.97;4992321;28;20438;-76
2021/03/26 06:59:21;;;;;;;37.73;18.37;;;;;;;11.34;39.27;95566.38;4964010;28;20920;-76
2021/03/26 07:02:04;;;;;;;34.53;18.20;;;;;;;11.58;39.74;95567.13;4944187;28;20452;-76
2021/03/26 07:04:43;;;;;;;32.90;20.20;;;;;;;11.97;38.61;95568.41;4992244;28;20455;-76
2021/03/26 07:07:44;;;;;;;32.07;21.37;;;;;;;12.05;37.90;95560.75;4992250;28;20491;-76
2021/03/26 07:10:24;;;;;;;34.77;23.53;;;;;;;11.47;39.88;95564.47;4992168;28;20460;-76
2021/03/26 07:13:22;;;;;;;33.80;22.13;;;;;;;10.90;40.51;95565.34;5000901;28;20540;-76
2021/03/26 07:15:59;;;;;;;41.90;24.57;;;;;;;11.15;41.54;95572.19;5053910;28;20453;-76
2021/03/26 07:18:40;;;;;;;44.43;23.80;;;;;;;11.59;40.62;95573.22;5053706;28;20452;-76
2021/03/26 07:21:12;;;;;;;32.97;21.27;;;;;;;11.76;38.84;95573.53;5053383;28;20453;-76
2021/03/26 07:24:10;;;;;;;32.70;21.13;;;;;;;12.16;39.94;95577.50;5053731;28;20449;-76
2021/03/26 07:26:53;;;;;;;34.93;20.17;;;;;;;12.33;37.94;95580.41;5053524;28;20450;-76
2021/03/26 07:29:45;;;;;;;43.20;22.83;;;;;;;12.44;37.98;95581.38;5053109;28;20486;-76
2021/03/26 07:32:36;;;;;;;34.43;20.70;;;;;;;12.53;38.42;95570.06;5011390;28;20447;-75
2021/03/26 07:35:22;;;;;;;35.10;21.60;;;;;;;12.70;37.66;95569.50;5011472;28;20474;-76
2021/03/26 07:38:01;;;;;;;34.53;21.53;;;;;;;12.82;37.62;95571.16;5011764;28;20476;-76
2021/03/26 07:40:51;;;;;;;39.20;24.80;;;;;;;12.00;37.11;95568.19;5011558;28;20494;-76
2021/03/26 07:43:33;;;;;;;39.70;25.20;;;;;;;11.81;38.95;95580.25;5011597;28;20444;-76
2021/03/26 07:46:15;;;;;;;33.73;22.73;;;;;;;11.48;39.41;95581.91;5011560;28;20455;-76
2021/03/26 07:48:59;;;;;;;34.10;21.47;;;;;;;11.42;41.14;95575.34;4994870;28;20506;-76
2021/03/26 07:51:30;;;;;;;38.10;22.17;;;;;;;10.78;41.52;95584.63;4962936;28;20447;-76
2021/03/26 07:54:32;;;;;;;35.40;23.00;;;;;;;11.03;42.07;95579.22;5011701;28;20503;-76
2021/03/26 07:57:31;;;;;;;36.57;20.33;;;;;;;10.17;43.96;95581.22;5014642;28;20529;-77
2021/03/26 08:00:24;;;;;;;49.77;23.97;;;;;;;9.59;45.37;95593.22;5015361;28;20826;-76
2021/03/26 08:03:05;;;;;;;40.13;21.27;;;;;;;9.39;45.25;95593.75;5015538;28;20577;-76
2021/03/26 08:05:42;;;;;;;34.40;23.10;;;;;;;9.22;47.00;95587.88;5015442;28;20814;-76
2021/03/26 08:08:29;;;;;;;34.07;20.23;;;;;;;9.42;46.75;95589.13;5015419;28;20453;-76
2021/03/26 08:11:05;;;;;;;36.40;19.90;;;;;;;9.73;45.58;95592.25;5057187;28;20443;-76
2021/03/26 08:13:59;;;;;;;35.17;22.33;;;;;;;9.40;46.26;95595.44;5057207;28;20554;-75
2021/03/26 08:17:02;;;;;;;28.70;18.20;;;;;;;9.66;45.94;95591.00;4995445;28;20462;-77
2021/03/26 08:19:41;;;;;;;31.33;17.63;;;;;;;10.10;44.13;95600.94;4918203;29;20454;-76
2021/03/26 08:22:17;;;;;;;43.63;21.20;;;;;;;10.16;43.62;95601.38;4918887;29;20449;-77
2021/03/26 08:24:59;;;;;;;20.97;13.33;;;;;;;10.51;40.73;95595.38;4918378;29;20456;-76
2021/03/26 08:27:36;;;;;;;24.60;11.77;;;;;;;10.41;40.46;95597.00;4918432;29;20955;-76
2021/03/26 08:30:23;;;;;;;18.10;12.83;;;;;;;10.50;40.47;95601.59;4902511;29;20490;-75
2021/03/26 08:33:03;;;;;;;21.80;13.43;;;;;;;10.48;40.18;95604.31;4918255;29;20815;-76
2021/03/26 08:35:39;;;;;;;16.20;10.90;;;;;;;10.36;39.48;95602.56;4918318;29;20462;-76
2021/03/26 08:38:27;;;;;;;17.50;12.37;;;;;;;10.34;39.73;95608.88;4917810;29;20465;-77
2021/03/26 08:40:58;;;;;;;24.87;14.93;;;;;;;10.29;40.21;95603.97;4917626;29;20944;-76
2021/03/26 08:43:27;;;;;;;20.67;12.83;;;;;;;10.22;40.42;95608.00;4917582;29;20450;-77
2021/03/26 08:46:07;;;;;;;22.87;12.77;;;;;;;10.39;41.01;95607.59;4917465;29;20451;-76
2021/03/26 08:48:43;;;;;;;17.50;11.53;;;;;;;10.42;40.25;95599.53;4917399;29;20590;-76
2021/03/26 08:51:37;;;;;;;29.37;12.60;;;;;;;10.53;38.58;95604.81;4917462;29;20451;-76
2021/03/26 08:54:23;;;;;;;29.33;12.97;;;;;;;10.44;39.46;95600.25;4983040;28;20970;-76
2021/03/26 08:56:57;;;;;;;18.33;11.90;;;;;;;10.60;40.20;95612.22;5052144;28;20504;-77
2021/03/26 08:59:47;;;;;;;14.30;11.07;;;;;;;10.63;40.20;95604.97;5055770;28;20487;-76
2021/03/26 09:02:31;;;;;;;18.47;12.50;;;;;;;10.50;39.36;95610.28;5055497;28;20445;-76
2021/03/26 09:05:35;;;;;;;24.03;14.90;;;;;;;10.53;39.56;95604.81;5055822;28;20452;-76
2021/03/26 09:08:13;;;;;;;14.57;11.10;;;;;;;10.43;38.44;95602.97;5055244;28;20453;-76
2021/03/26 09:11:33;;;;;;;17.80;10.63;;;;;;;10.27;40.10;95600.63;5055370;28;20440;-76
2021/03/26 09:14:18;;;;;;;19.30;11.23;;;;;;;10.17;39.33;95596.97;5055843;28;20487;-76
2021/03/26 09:16:53;;;;;;;19.37;11.53;;;;;;;10.27;39.91;95599.78;5053486;28;20494;-76
2021/03/26 09:19:26;;;;;;;25.67;15.87;;;;;;;10.48;41.45;95593.00;5055768;28;20501;-76
2021/03/26 09:22:02;;;;;;;18.67;13.10;;;;;;;10.39;39.13;95591.84;5055497;28;20454;-76
2021/03/26 09:24:54;;;;;;;29.03;12.87;;;;;;;10.34;40.46;95593.97;5055867;28;20490;-76
2021/03/26 09:27:28;;;;;;;19.37;10.37;;;;;;;10.38;39.49;95594.59;5055800;28;20504;-77
2021/03/26 09:30:02;;;;;;;15.20;11.20;;;;;;;10.36;39.95;95597.31;5055139;28;20492;-76
2021/03/26 09:32:32;;;;;;;17.60;10.93;;;;;;;10.57;40.77;95589.69;5055538;28;20781;-76
2021/03/26 09:35:09;;;;;;;25.07;11.40;;;;;;;10.63;40.34;95598.88;5055379;28;20452;-77
2021/03/26 09:37:43;;;;;;;15.97;10.63;;;;;;;10.61;39.91;95599.00;5056516;28;20774;-76
2021/03/26 09:40:18;;;;;;;16.93;12.20;;;;;;;10.65;41.17;95599.59;5055321;28;20803;-76
2021/03/26 09:42:52;;;;;;;20.20;10.37;;;;;;;10.64;40.34;95596.16;5055374;28;20444;-76
2021/03/26 09:45:27;;;;;;;14.60;9.57;;;;;;;10.46;39.59;95600.97;5055502;28;20438;-76
2021/03/26 09:48:28;;;;;;;17.00;10.50;;;;;;;10.36;40.37;95597.31;5054985;28;20820;-76
2021/03/26 09:51:03;;;;;;;18.90;10.87;;;;;;;10.35;42.53;95593.03;4993783;28;20447;-76
2021/03/26 09:53:36;;;;;;;18.60;11.03;;;;;;;10.44;40.49;95604.66;4993385;28;21034;-76
2021/03/26 09:56:24;;;;;;;15.43;10.80;;;;;;;10.43;42.02;95588.09;4993649;28;20450;-76
2021/03/26 09:59:01;;;;;;;22.87;12.33;;;;;;;10.34;40.41;95590.50;4962554;28;20487;-77
2021/03/26 10:01:36;;;;;;;21.83;11.53;;;;;;;10.20;41.70;95591.50;4961187;28;20439;-76
2021/03/26 10:04:06;;;;;;;14.33;9.47;;;;;;;10.22;40.26;95589.63;4993685;28;20474;-76
2021/03/26 10:06:45;;;;;;;18.20;11.60;;;;;;;10.10;40.54;95591.28;4993534;28;20560;-77
2021/03/26 10:09:24;;;;;;;16.17;11.07;;;;;;;10.07;39.80;95581.03;4993661;28;20512;-76
2021/03/26 10:12:06;;;;;;;20.53;10.73;;;;;;;10.13;40.58;95585.03;4993576;28;20532;-76
2021/03/26 10:14:36;;;;;;;22.80;12.67;;;;;;;10.14;40.66;95581.47;4992993;28;20541;-77
2021/03/26 10:17:41;;;;;;;20.53;11.87;;;;;;;10.25;41.37;95573.66;4993407;28;20462;-77
2021/03/26 10:20:21;;;;;;;18.57;12.90;;;;;;;10.23;40.74;95584.28;4831758;29;20447;-77
2021/03/26 10:23:00;;;;;;;18.10;12.07;;;;;;;10.16;41.01;95580.41;4881906;29;20490;-77
2021/03/26 10:25:33;;;;;;;20.93;10.60;;;;;;;10.11;41.14;95571.16;4847822;29;20446;-77
2021/03/26 10:28:16;;;;;;;19.30;11.40;;;;;;;10.23;42.14;95576.41;4901740;29;20462;-77
2021/03/26 10:30:43;;;;;;;21.13;11.53;;;;;;;10.14;40.73;95578.84;4916362;29;20494;-77
2021/03/26 10:33:12;;;;;;;16.77;11.30;;;;;;;9.98;41.75;95571.22;4915971;29;20501;-77
2021/03/26 10:35:47;;;;;;;16.47;9.67;;;;;;;10.09;42.10;95568.66;4916168;29;20459;-77
2021/03/26 10:38:16;;;;;;;18.90;11.43;;;;;;;10.09;41.82;95562.56;4916080;29;20526;-77
2021/03/26 10:40:49;;;;;;;15.97;11.87;;;;;;;10.09;41.35;95563.41;4916036;29;20543;-76
2021/03/26 10:43:21;;;;;;;15.20;10.53;;;;;;;10.18;41.47;95569.78;4916125;29;20452;-77
2021/03/26 10:46:01;;;;;;;23.10;13.17;;;;;;;10.26;42.67;95574.50;4916090;29;20445;-76
2021/03/26 10:48:36;;;;;;;24.10;10.97;;;;;;;10.08;40.84;95566.97;4916933;29;20532;-76
2021/03/26 10:51:41;;;;;;;15.27;9.03;;;;;;;10.02;41.38;95577.06;4917179;29;20457;-76
2021/03/26 10:54:15;;;;;;;12.20;9.23;;;;;;;10.08;41.75;95574.00;4915996;29;20469;-76
2021/03/26 10:56:52;;;;;;;24.43;10.47;;;;;;;10.17;41.14;95581.22;4967585;28;20455;-76
2021/03/26 10:59:28;;;;;;;16.23;10.07;;;;;;;10.23;42.22;95573.78;5053861;28;20438;-77
2021/03/26 11:02:19;;;;;;;16.63;11.57;;;;;;;10.29;41.12;95575.13;5054137;28;20461;-77
2021/03/26 11:04:53;;;;;;;17.00;9.97;;;;;;;10.11;39.64;95569.38;5054286;28;20452;-77
2021/03/26 11:07:26;;;;;;;11.93;9.80;;;;;;;10.00;40.96;95571.94;5054152;28;20454;-77
2021/03/26 11:10:00;;;;;;;17.30;11.20;;;;;;;10.03;40.65;95578.75;5053849;28;20493;-76
2021/03/26 11:12:37;;;;;;;18.70;10.97;;;;;;;9.93;39.60;95573.34;5053595;28;20938;-77
2021/03/26 11:15:09;;;;;;;22.53;11.93;;;;;;;10.09;39.67;95567.81;5053770;28;20451;-77
2021/03/26 11:17:58;;;;;;;14.03;10.57;;;;;;;10.20;41.66;95576.63;5053572;28;20929;-77
2021/03/26 11:20:39;;;;;;;17.47;11.20;;;;;;;10.32;41.73;95564.41;5053566;28;20428;-77
2021/03/26 11:23:12;;;;;;;12.50;10.10;;;;;;;10.41;39.24;95563.75;5053384;28;20492;-76
2021/03/26 11:25:43;;;;;;;21.30;10.40;;;;;;;10.43;38.23;95559.22;5053761;28;20445;-76
2021/03/26 11:28:30;;;;;;;20.70;10.00;;;;;;;10.51;41.98;95553.41;5053473;28;20449;-76
2021/03/26 11:31:21;;;;;;;14.77;10.40;;;;;;;10.49;39.64;95563.19;5052722;28;20944;-76
2021/03/26 11:33:58;;;;;;;17.87;11.30;;;;;;;10.55;40.50;95555.69;5052741;28;20505;-76
2021/03/26 11:36:38;;;;;;;14.40;9.87;;;;;;;10.71;38.30;95549.31;5019292;28;20808;-76
2021/03/26 11:39:15;;;;;;;18.63;10.07;;;;;;;10.79;39.68;95542.53;5052437;28;20449;-77
2021/03/26 11:41:46;;;;;;;16.73;9.67;;;;;;;10.85;39.91;95543.84;5052912;28;20457;-76
2021/03/26 11:44:18;;;;;;;15.27;9.40;;;;;;;10.79;40.03;95539.91;5052972;28;20444;-77
2021/03/26 11:46:50;;;;;;;16.53;8.83;;;;;;;10.78;39.11;95534.75;5053010;28;20507;-76
2021/03/26 11:49:21;;;;;;;13.67;9.07;;;;;;;10.87;37.34;95539.31;5053078;28;20495;-77
2021/03/26 11:51:59;;;;;;;14.67;10.33;;;;;;;10.74;38.27;95531.53;5053298;28;20476;-76
2021/03/26 11:54:39;;;;;;;8.80;7.50;;;;;;;10.77;33.89;95533.94;5052690;28;20452;-77
2021/03/26 11:57:19;;;;;;;15.17;8.53;;;;;;;10.79;34.25;95523.31;5053234;28;20441;-76
2021/03/26 11:59:57;;;;;;;13.90;10.10;;;;;;;10.64;36.21;95524.44;5052738;28;20459;-76
2021/03/26 12:02:38;;;;;;;17.70;9.77;;;;;;;10.60;36.58;95520.38;5053287;28;20458;-76
2021/03/26 12:05:12;;;;;;;8.07;6.50;;;;;;;10.48;34.72;95522.97;5053041;28;20463;-77